Austintown, Ohio
Current Conditions -  °F | °C
As of 9:06 AM on Saturday 01 Nov 2014 (Local Time) from KYNG Reporting Station
Light Rain Light Rain  
Wind Chill: 32°   Ceiling: 700
Heat Index: 40°   Visibility: 6mi
Dew Point: 37°   Wind: 15mph
Humidity: 89%   Direction: 360°N
Pressure: 30.05"   Gusts: NA
Location:  41.1°N, 80.76°W
Report Text: KYNG 011306Z 36013KT 6SM -RA BR BKN007 OVC016 04/03 A3005 RMK AO2 P0000 T00440028 $
Loading
Personal Weather Stations






























Interactive Weather Map
Tropical Storm Tracking
New forecast layout! Learn more

10-Day Weather Forecast

Advertisements
Track Severe Weather on mobile